createdAt,value
2023-03-15T00:01:27.724Z,2.09
2023-03-15T00:03:56.241Z,2.08
2023-03-15T00:06:24.205Z,2.06
2023-03-15T00:08:53.206Z,1.99
2023-03-15T00:11:21.714Z,2.02
2023-03-15T00:13:51.657Z,2.04
2023-03-15T00:16:23.130Z,2.01
2023-03-15T00:18:52.265Z,1.97
2023-03-15T00:21:21.042Z,1.99
2023-03-15T00:23:53.153Z,2.09
2023-03-15T00:26:21.278Z,2.15
2023-03-15T00:28:50.686Z,2.12
2023-03-15T00:31:22.093Z,2.08
2023-03-15T00:33:53.785Z,2.15
2023-03-15T00:36:25.671Z,2.12
2023-03-15T00:38:56.792Z,2.12
2023-03-15T00:41:26.209Z,2.15
2023-03-15T00:43:55.592Z,2.26
2023-03-15T00:46:24.480Z,2.28
2023-03-15T00:48:53.940Z,2.30
2023-03-15T00:51:23.474Z,2.29
2023-03-15T00:53:57.235Z,2.25
2023-03-15T00:56:30.015Z,2.33
2023-03-15T00:59:02.057Z,2.37
2023-03-15T01:01:31.932Z,2.30
2023-03-15T01:03:59.952Z,2.40
2023-03-15T01:06:30.410Z,2.36
2023-03-15T01:09:01.811Z,2.36
2023-03-15T01:11:30.801Z,2.36
2023-03-15T01:14:00.800Z,2.37
2023-03-15T01:16:29.941Z,2.37
2023-03-15T01:18:58.851Z,2.46
2023-03-15T01:21:27.027Z,2.47
2023-03-15T01:23:55.373Z,2.40
2023-03-15T01:26:27.164Z,2.46
2023-03-15T01:28:55.839Z,2.67
2023-03-15T01:31:28.442Z,2.68
2023-03-15T01:33:57.530Z,2.85
2023-03-15T01:36:27.153Z,2.81
2023-03-15T01:38:56.579Z,2.71
2023-03-15T01:41:30.060Z,2.68
2023-03-15T01:43:58.921Z,2.61
2023-03-15T01:46:30.122Z,2.56
2023-03-15T01:49:12.968Z,2.44
2023-03-15T01:51:47.147Z,2.37
2023-03-15T01:54:20.791Z,2.16
2023-03-15T01:56:55.308Z,2.04
2023-03-15T01:59:28.936Z,1.84
2023-03-15T02:01:59.620Z,1.75
2023-03-15T02:04:35.675Z,1.77
2023-03-15T02:07:05.936Z,1.74
2023-03-15T02:09:44.060Z,1.67
2023-03-15T02:12:13.678Z,1.64
2023-03-15T02:14:44.550Z,1.60
2023-03-15T02:17:20.515Z,1.60
2023-03-15T02:19:57.705Z,1.66
2023-03-15T02:22:35.555Z,1.67
2023-03-15T02:33:29.015Z,1.68
2023-03-15T02:36:09.380Z,1.54
2023-03-15T02:38:38.869Z,1.52
2023-03-15T02:41:09.475Z,1.52
2023-03-15T02:43:43.086Z,1.49
2023-03-15T02:46:11.868Z,1.56
2023-03-15T02:48:43.859Z,1.60
2023-03-15T02:51:21.807Z,1.54
2023-03-15T02:53:53.634Z,1.63
2023-03-15T02:56:22.040Z,1.63
2023-03-15T02:58:49.985Z,1.63
2023-03-15T03:01:20.859Z,1.57
2023-03-15T03:03:48.798Z,1.67
2023-03-15T03:06:19.405Z,1.75
2023-03-15T03:08:49.180Z,1.75
2023-03-15T03:11:20.332Z,1.73
2023-03-15T03:13:49.506Z,1.63
2023-03-15T03:16:17.529Z,1.80
2023-03-15T03:18:46.012Z,1.70
2023-03-15T03:21:15.262Z,1.67
2023-03-15T03:23:46.480Z,1.67
2023-03-15T03:26:18.213Z,1.64
2023-03-15T03:28:49.694Z,1.67
2023-03-15T03:31:19.948Z,1.73
2023-03-15T03:33:48.180Z,1.74
2023-03-15T03:36:16.863Z,1.66
2023-03-15T03:38:48.454Z,1.66
2023-03-15T03:41:16.765Z,1.64
2023-03-15T03:43:44.904Z,1.59
2023-03-15T03:46:14.275Z,1.68
2023-03-15T03:48:50.194Z,1.68
2023-03-15T03:51:20.504Z,1.75
2023-03-15T03:53:50.636Z,1.81
2023-03-15T03:56:19.176Z,1.75
2023-03-15T03:58:48.559Z,1.81
2023-03-15T04:01:25.923Z,1.80
2023-03-15T04:03:56.689Z,1.84
2023-03-15T04:06:25.554Z,1.77
2023-03-15T04:08:56.400Z,1.84
2023-03-15T04:11:31.060Z,1.88
2023-03-15T04:14:02.696Z,1.94
2023-03-15T04:16:32.182Z,1.77
2023-03-15T04:19:09.518Z,1.82
2023-03-15T04:21:38.600Z,1.88
2023-03-15T04:24:21.096Z,1.94
2023-03-15T04:27:02.857Z,1.97
2023-03-15T04:29:57.947Z,1.94
2023-03-15T04:32:43.021Z,1.95
2023-03-15T04:35:16.838Z,1.85
2023-03-15T04:37:52.213Z,1.91
2023-03-15T04:40:35.076Z,1.84
2023-03-15T04:43:17.024Z,1.82
2023-03-15T04:46:04.087Z,1.84
2023-03-15T04:48:45.137Z,1.89
2023-03-15T04:51:48.448Z,1.87
2023-03-15T04:54:33.390Z,1.84
2023-03-15T04:57:21.605Z,1.93
2023-03-15T05:00:07.727Z,1.95
2023-03-15T05:02:55.945Z,1.93
2023-03-15T05:05:42.054Z,2.06
2023-03-15T05:08:29.368Z,1.93
2023-03-15T05:11:26.594Z,1.95
2023-03-15T05:14:28.581Z,1.98
2023-03-15T05:17:16.550Z,1.94
2023-03-15T05:20:12.998Z,1.94
2023-03-15T05:23:17.545Z,1.94
2023-03-15T05:26:08.902Z,1.97
2023-03-15T05:28:53.358Z,1.89
2023-03-15T05:31:22.741Z,1.94
2023-03-15T05:34:24.696Z,2.02
2023-03-15T05:37:18.996Z,1.95
2023-03-15T05:40:09.691Z,2.02
2023-03-15T05:43:00.679Z,2.11
2023-03-15T05:45:51.105Z,2.11
2023-03-15T05:48:27.004Z,2.04
2023-03-15T05:50:59.454Z,1.95
2023-03-15T05:53:56.476Z,2.01
2023-03-15T05:56:44.333Z,2.15
2023-03-15T05:59:35.849Z,2.13
2023-03-15T06:02:36.785Z,2.23
2023-03-15T06:05:22.856Z,2.18
2023-03-15T06:07:52.500Z,2.19
2023-03-15T06:10:21.847Z,2.23
2023-03-15T06:12:52.665Z,2.29
2023-03-15T06:15:21.062Z,2.26
2023-03-15T06:17:52.461Z,2.21
2023-03-15T06:20:22.100Z,2.19
2023-03-15T06:22:50.440Z,2.30
2023-03-15T06:25:35.845Z,2.32
2023-03-15T06:28:03.996Z,2.30
2023-03-15T06:30:32.555Z,2.26
2023-03-15T06:33:02.866Z,2.34
2023-03-15T06:35:33.453Z,2.39
2023-03-15T06:38:02.260Z,2.32
2023-03-15T06:40:30.300Z,2.36
2023-03-15T06:43:04.528Z,2.23
2023-03-15T06:45:32.662Z,2.37
2023-03-15T06:48:00.858Z,2.30
2023-03-15T06:50:37.385Z,2.26
2023-03-15T06:53:14.432Z,2.57
2023-03-15T06:55:44.178Z,2.67
2023-03-15T06:58:12.350Z,2.65
2023-03-15T07:00:40.387Z,3.01
2023-03-15T07:03:09.369Z,2.91
2023-03-15T07:05:37.327Z,2.95
2023-03-15T07:08:06.132Z,2.74
2023-03-15T07:10:35.924Z,2.74
2023-03-15T07:13:05.182Z,2.77
2023-03-15T07:15:33.549Z,2.71
2023-03-15T07:18:02.732Z,2.67
2023-03-15T07:20:31.562Z,2.67
2023-03-15T07:22:59.548Z,2.92
2023-03-15T07:25:28.444Z,2.95
2023-03-15T07:27:57.752Z,3.09
2023-03-15T07:30:26.213Z,2.96
2023-03-15T07:32:54.387Z,3.23
2023-03-15T07:35:24.802Z,3.31
2023-03-15T07:37:52.699Z,3.27
2023-03-15T07:40:21.855Z,3.23
2023-03-15T07:42:49.766Z,3.15
2023-03-15T07:45:21.745Z,3.30
2023-03-15T07:48:09.817Z,3.55
2023-03-15T07:50:39.196Z,3.74
2023-03-15T07:53:08.452Z,3.48
2023-03-15T07:55:37.128Z,3.41
2023-03-15T07:58:06.372Z,3.58
2023-03-15T08:00:35.794Z,3.70
2023-03-15T08:03:07.944Z,3.57
2023-03-15T08:05:36.261Z,3.64
2023-03-15T08:08:04.214Z,3.65
2023-03-15T08:10:32.976Z,3.77
2023-03-15T08:13:00.904Z,3.61
2023-03-15T08:15:29.275Z,3.96
2023-03-15T08:17:59.762Z,4.47
2023-03-15T08:20:29.838Z,4.62
2023-03-15T08:22:58.306Z,4.47
2023-03-15T08:25:27.923Z,4.40
2023-03-15T08:27:55.913Z,4.51
2023-03-15T08:30:24.624Z,4.48
2023-03-15T08:32:53.381Z,4.10
2023-03-15T08:35:23.604Z,4.23
2023-03-15T08:37:52.631Z,4.06
2023-03-15T08:40:25.374Z,4.47
2023-03-15T08:42:53.748Z,4.40
2023-03-15T08:45:23.983Z,4.38
2023-03-15T08:47:55.405Z,4.58
2023-03-15T08:50:25.918Z,4.87
2023-03-15T08:52:54.386Z,4.72
2023-03-15T08:55:22.814Z,4.73
2023-03-15T08:57:50.936Z,4.44
2023-03-15T09:00:23.308Z,5.16
2023-03-15T09:02:53.177Z,5.37
2023-03-15T09:05:23.372Z,5.52
2023-03-15T09:07:53.476Z,5.41
2023-03-15T09:10:22.886Z,5.70
2023-03-15T09:12:54.180Z,5.67
2023-03-15T09:15:22.801Z,5.52
2023-03-15T09:17:52.074Z,5.04
2023-03-15T09:20:23.281Z,5.56
2023-03-15T09:22:54.951Z,5.83
2023-03-15T09:25:25.471Z,5.70
2023-03-15T09:27:53.940Z,5.32
2023-03-15T09:30:22.115Z,5.67
2023-03-15T09:32:51.614Z,5.65
2023-03-15T09:35:22.138Z,5.52
2023-03-15T09:37:52.208Z,5.10
2023-03-15T09:40:23.325Z,4.89
2023-03-15T09:43:03.074Z,5.30
2023-03-15T09:45:42.678Z,5.09
2023-03-15T09:48:12.773Z,5.19
2023-03-15T09:50:44.486Z,4.85
2023-03-15T09:53:20.814Z,4.92
2023-03-15T09:55:51.004Z,5.35
2023-03-15T09:58:25.502Z,5.65
2023-03-15T10:00:57.456Z,5.55
2023-03-15T10:03:33.699Z,6.11
2023-03-15T10:06:06.762Z,6.46
2023-03-15T10:08:38.444Z,6.24
2023-03-15T10:11:12.374Z,5.49
2023-03-15T10:13:57.266Z,5.24
2023-03-15T10:16:33.301Z,5.67
2023-03-15T10:19:14.780Z,5.76
2023-03-15T10:22:02.620Z,6.66
2023-03-15T10:24:38.922Z,6.38
2023-03-15T10:27:22.704Z,6.66
2023-03-15T10:29:54.501Z,6.77
2023-03-15T10:32:26.950Z,6.48
2023-03-15T10:34:58.403Z,6.63
2023-03-15T10:37:27.093Z,6.41
2023-03-15T10:40:00.158Z,6.45
2023-03-15T10:42:30.657Z,6.48
2023-03-15T10:45:00.737Z,6.27
2023-03-15T10:47:29.132Z,6.17
2023-03-15T10:49:58.832Z,6.90
2023-03-15T10:52:46.464Z,6.84
2023-03-15T10:55:27.137Z,6.39
2023-03-15T10:57:58.150Z,6.03
2023-03-15T11:00:31.799Z,6.35
2023-03-15T11:03:05.643Z,6.97
2023-03-15T11:05:39.573Z,7.11
2023-03-15T11:08:14.693Z,7.31
2023-03-15T11:10:45.437Z,7.62
2023-03-15T11:13:20.926Z,6.86
2023-03-15T11:15:55.715Z,6.73
2023-03-15T11:18:29.325Z,7.21
2023-03-15T11:20:58.970Z,7.22
2023-03-15T11:23:29.198Z,6.87
2023-03-15T11:25:59.691Z,7.31
2023-03-15T11:28:30.956Z,7.46
2023-03-15T11:31:02.273Z,7.78
2023-03-15T11:33:44.455Z,7.98
2023-03-15T11:36:19.063Z,8.02
2023-03-15T11:38:47.534Z,8.06
2023-03-15T11:41:29.629Z,7.62
2023-03-15T11:44:04.924Z,7.90
2023-03-15T11:46:38.398Z,7.77
2023-03-15T11:49:15.877Z,7.88
2023-03-15T11:51:46.768Z,7.81
2023-03-15T11:54:16.561Z,7.70
2023-03-15T11:56:51.225Z,7.24
2023-03-15T11:59:21.682Z,7.55
2023-03-15T12:01:52.159Z,8.11
2023-03-15T12:04:38.244Z,8.09
2023-03-15T12:07:13.962Z,8.33
2023-03-15T12:09:52.247Z,8.12
2023-03-15T12:12:39.142Z,7.78
2023-03-15T12:15:36.410Z,7.73
2023-03-15T12:18:07.580Z,8.11
2023-03-15T12:20:38.717Z,7.91
2023-03-15T12:23:22.570Z,8.78
2023-03-15T12:25:56.081Z,9.30
2023-03-15T12:28:30.127Z,8.64
2023-03-15T12:31:01.886Z,8.63
2023-03-15T12:33:33.111Z,8.09
2023-03-15T12:36:02.941Z,7.88
2023-03-15T12:38:38.096Z,8.45
2023-03-15T12:41:10.173Z,7.49
2023-03-15T12:43:44.539Z,7.26
2023-03-15T12:46:42.249Z,7.15
2023-03-15T12:49:14.104Z,7.43
2023-03-15T12:51:56.855Z,7.97
2023-03-15T12:54:32.833Z,7.67
2023-03-15T12:57:01.967Z,8.28
2023-03-15T12:59:42.181Z,8.95
2023-03-15T13:02:39.601Z,8.64
2023-03-15T13:05:19.694Z,7.58
2023-03-15T13:07:56.531Z,7.38
2023-03-15T13:10:37.453Z,7.14
2023-03-15T13:13:26.050Z,7.53
2023-03-15T13:16:09.236Z,9.42
2023-03-15T13:18:47.311Z,9.71
2023-03-15T13:21:21.559Z,8.71
2023-03-15T13:23:51.970Z,7.58
2023-03-15T13:26:36.588Z,8.24
2023-03-15T13:29:14.267Z,8.29
2023-03-15T13:31:45.686Z,8.11
2023-03-15T13:34:16.192Z,8.20
2023-03-15T13:36:47.809Z,7.97
2023-03-15T13:39:20.596Z,8.31
2023-03-15T13:41:49.137Z,8.32
2023-03-15T13:44:20.750Z,8.11
2023-03-15T13:46:52.630Z,7.69
2023-03-15T13:49:21.725Z,7.83
2023-03-15T13:51:51.018Z,7.90
2023-03-15T13:54:27.319Z,7.81
2023-03-15T13:56:59.083Z,7.39
2023-03-15T13:59:33.036Z,7.03
2023-03-15T14:02:04.537Z,7.04
2023-03-15T14:04:39.165Z,6.72
2023-03-15T14:07:25.506Z,6.79
2023-03-15T14:10:27.900Z,7.21
2023-03-15T14:12:57.403Z,7.77
2023-03-15T14:15:27.840Z,7.77
2023-03-15T14:18:02.744Z,7.05
2023-03-15T14:20:37.319Z,7.26
2023-03-15T14:23:07.662Z,7.24
2023-03-15T14:25:37.791Z,7.11
2023-03-15T14:28:07.445Z,7.11
2023-03-15T14:30:38.306Z,6.87
2023-03-15T14:33:08.861Z,6.75
2023-03-15T14:35:46.389Z,6.65
2023-03-15T14:38:20.085Z,6.77
2023-03-15T14:40:49.727Z,6.98
2023-03-15T14:43:17.593Z,7.09
2023-03-15T14:45:48.680Z,6.98
2023-03-15T14:48:28.047Z,6.93
2023-03-15T14:50:57.369Z,7.00
2023-03-15T14:53:28.536Z,6.90
2023-03-15T14:55:56.521Z,6.94
2023-03-15T14:58:24.721Z,6.93
2023-03-15T15:00:58.012Z,8.04
2023-03-15T15:03:34.643Z,9.60
2023-03-15T15:08:32.897Z,10.53
2023-03-15T15:11:02.726Z,10.47
2023-03-15T15:13:33.106Z,10.56
2023-03-15T15:16:02.333Z,10.79
2023-03-15T15:18:33.308Z,9.54
2023-03-15T15:21:04.323Z,8.85
2023-03-15T15:23:34.927Z,8.74
2023-03-15T15:26:06.935Z,7.70
2023-03-15T15:28:37.162Z,8.14
2023-03-15T15:31:07.868Z,7.83
2023-03-15T15:33:37.343Z,7.77
2023-03-15T15:36:11.628Z,7.53
2023-03-15T15:38:40.305Z,7.67
2023-03-15T15:41:14.944Z,7.77
2023-03-15T15:43:43.840Z,7.77
2023-03-15T15:46:13.233Z,8.49
2023-03-15T15:48:43.160Z,8.46
2023-03-15T15:51:21.121Z,8.35
2023-03-15T15:53:51.674Z,9.39
2023-03-15T15:56:19.633Z,11.15
2023-03-15T15:58:48.402Z,11.36
2023-03-15T16:01:17.939Z,11.18
2023-03-15T16:03:47.346Z,12.02
2023-03-15T16:06:19.808Z,11.98
2023-03-15T16:08:50.760Z,13.16
2023-03-15T16:11:20.376Z,13.00
2023-03-15T16:13:50.949Z,12.72
2023-03-15T16:16:20.420Z,13.12
2023-03-15T16:18:49.958Z,13.81
2023-03-15T16:21:23.518Z,14.08
2023-03-15T16:23:56.307Z,12.32
2023-03-15T16:26:25.367Z,12.91
2023-03-15T16:28:53.309Z,13.50
2023-03-15T16:31:23.053Z,13.16
2023-03-15T16:33:52.863Z,13.53
2023-03-15T16:36:22.771Z,12.97
2023-03-15T16:38:51.374Z,12.05
2023-03-15T16:41:19.900Z,11.12
2023-03-15T16:43:49.632Z,10.12
2023-03-15T16:46:18.526Z,8.98
2023-03-15T16:48:47.549Z,8.28
2023-03-15T16:51:17.780Z,7.48
2023-03-15T16:53:46.377Z,6.90
2023-03-15T16:56:16.407Z,6.70
2023-03-15T16:58:45.909Z,6.18
2023-03-15T17:01:14.261Z,6.03
2023-03-15T17:03:42.744Z,5.99
2023-03-15T17:06:20.138Z,5.82
2023-03-15T17:08:49.448Z,5.65
2023-03-15T17:11:18.908Z,5.52
2023-03-15T17:13:47.193Z,5.30
2023-03-15T17:16:16.613Z,5.16
2023-03-15T17:18:46.947Z,5.10
2023-03-15T17:21:16.052Z,5.07
2023-03-15T17:23:46.704Z,4.83
2023-03-15T17:26:16.866Z,4.92
2023-03-15T17:28:46.521Z,4.80
2023-03-15T17:31:25.290Z,4.50
2023-03-15T17:33:54.267Z,4.57
2023-03-15T17:36:25.178Z,4.36
2023-03-15T17:38:55.031Z,4.34
2023-03-15T17:41:27.466Z,4.10
2023-03-15T17:43:55.628Z,3.92
2023-03-15T17:46:28.622Z,3.68
2023-03-15T17:48:57.207Z,3.72
2023-03-15T17:51:28.370Z,3.77
2023-03-15T17:53:59.434Z,3.74
2023-03-15T17:56:28.765Z,3.74
2023-03-15T17:58:56.954Z,3.61
2023-03-15T18:01:27.498Z,3.75
2023-03-15T18:03:56.768Z,3.71
2023-03-15T18:06:24.931Z,3.77
2023-03-15T18:08:52.964Z,3.77
2023-03-15T18:11:29.308Z,3.74
2023-03-15T18:13:59.091Z,3.78
2023-03-15T18:16:27.684Z,3.50
2023-03-15T18:18:56.301Z,3.46
2023-03-15T18:21:27.270Z,3.24
2023-03-15T18:23:56.898Z,3.09
2023-03-15T18:26:26.221Z,3.05
2023-03-15T18:28:54.844Z,2.98
2023-03-15T18:31:25.699Z,2.91
2023-03-15T18:33:54.612Z,3.03
2023-03-15T18:36:22.966Z,2.95
2023-03-15T18:38:51.977Z,2.80
2023-03-15T18:41:21.765Z,2.81
2023-03-15T18:43:52.822Z,2.83
2023-03-15T18:46:24.223Z,2.75
2023-03-15T18:48:54.902Z,2.77
2023-03-15T18:51:28.229Z,2.81
2023-03-15T18:53:57.468Z,2.70
2023-03-15T18:56:26.979Z,2.62
2023-03-15T18:58:57.000Z,2.73
2023-03-15T19:01:25.904Z,2.56
2023-03-15T19:03:55.555Z,2.84
2023-03-15T19:06:24.181Z,3.30
2023-03-15T19:08:54.537Z,3.54
2023-03-15T19:11:24.068Z,3.55
2023-03-15T19:13:52.654Z,3.61
2023-03-15T19:16:22.929Z,3.58
2023-03-15T19:18:53.177Z,3.51
2023-03-15T19:21:21.370Z,3.58
2023-03-15T19:23:50.283Z,3.75
2023-03-15T19:26:18.279Z,3.70
2023-03-15T19:28:46.406Z,3.63
2023-03-15T19:31:14.516Z,3.74
2023-03-15T19:33:44.580Z,3.83
2023-03-15T19:36:14.164Z,3.95
2023-03-15T19:38:45.280Z,3.95
2023-03-15T19:41:13.760Z,3.86
2023-03-15T19:43:43.578Z,3.71
2023-03-15T19:46:14.113Z,3.60
2023-03-15T19:48:43.705Z,3.67
2023-03-15T19:51:13.261Z,3.70
2023-03-15T19:53:42.075Z,3.74
2023-03-15T19:56:11.780Z,3.61
2023-03-15T19:58:40.534Z,3.57
2023-03-15T20:01:09.041Z,3.41
2023-03-15T20:03:37.594Z,3.31
2023-03-15T20:06:09.859Z,3.24
2023-03-15T20:08:43.051Z,3.31
2023-03-15T20:11:16.126Z,3.55
2023-03-15T20:13:44.713Z,3.55
2023-03-15T20:16:13.102Z,3.43
2023-03-15T20:18:42.606Z,3.44
2023-03-15T20:21:14.217Z,3.46
2023-03-15T20:24:02.228Z,3.46
2023-03-15T20:26:31.232Z,3.48
2023-03-15T20:28:59.229Z,3.41
2023-03-15T20:31:28.168Z,3.23
2023-03-15T20:33:56.122Z,3.05
2023-03-15T20:36:25.554Z,3.20
2023-03-15T20:38:54.076Z,3.47
2023-03-15T20:41:22.176Z,3.57
2023-03-15T20:43:50.123Z,3.53
2023-03-15T20:46:19.782Z,3.41
2023-03-15T20:48:47.816Z,3.48
2023-03-15T20:51:16.273Z,3.57
2023-03-15T20:53:46.843Z,3.48
2023-03-15T20:56:14.877Z,3.50
2023-03-15T20:58:42.786Z,3.48
2023-03-15T21:01:15.300Z,3.37
2023-03-15T21:03:43.671Z,3.51
2023-03-15T21:06:12.187Z,3.44
2023-03-15T21:09:02.481Z,3.55
2023-03-15T21:11:30.658Z,3.51
2023-03-15T21:13:58.636Z,3.55
2023-03-15T21:16:27.122Z,3.48
2023-03-15T21:18:55.106Z,3.38
2023-03-15T21:21:23.637Z,3.55
2023-03-15T21:23:52.217Z,3.60
2023-03-15T21:26:22.407Z,3.64
2023-03-15T21:28:50.724Z,3.63
2023-03-15T21:31:19.221Z,3.54
2023-03-15T21:33:49.230Z,3.51
2023-03-15T21:36:19.542Z,3.51
2023-03-15T21:38:47.993Z,3.43
2023-03-15T21:41:16.658Z,3.33
2023-03-15T21:43:46.001Z,3.30
2023-03-15T21:46:15.389Z,3.30
2023-03-15T21:48:43.635Z,3.34
2023-03-15T21:51:14.745Z,3.34
2023-03-15T21:53:44.001Z,3.30
2023-03-15T21:56:13.764Z,3.30
2023-03-15T21:58:42.869Z,3.27
2023-03-15T22:01:14.345Z,3.19
2023-03-15T22:03:44.259Z,3.13
2023-03-15T22:06:13.565Z,3.12
2023-03-15T22:08:42.030Z,3.08
2023-03-15T22:11:10.068Z,2.96
2023-03-15T22:13:38.113Z,3.03
2023-03-15T22:16:08.011Z,3.06
2023-03-15T22:18:37.498Z,3.08
2023-03-15T22:21:05.876Z,3.09
2023-03-15T22:23:34.526Z,3.09
2023-03-15T22:26:02.493Z,3.06
2023-03-15T22:28:30.897Z,2.95
2023-03-15T22:30:59.277Z,2.95
2023-03-15T22:33:27.412Z,2.94
2023-03-15T22:35:58.235Z,2.98
2023-03-15T22:38:27.939Z,2.94
2023-03-15T22:41:04.093Z,2.89
2023-03-15T22:43:32.634Z,2.95
2023-03-15T22:46:00.750Z,2.98
2023-03-15T22:48:29.857Z,2.94
2023-03-15T22:51:00.844Z,2.91
2023-03-15T22:53:29.599Z,2.89
2023-03-15T22:55:58.004Z,2.95
2023-03-15T22:58:27.259Z,2.91
2023-03-15T23:00:55.484Z,2.92
2023-03-15T23:03:24.635Z,2.94
2023-03-15T23:05:53.017Z,2.89
2023-03-15T23:08:24.256Z,2.92
2023-03-15T23:10:52.838Z,2.84
2023-03-15T23:13:22.000Z,2.89
2023-03-15T23:15:50.053Z,2.89
2023-03-15T23:18:18.645Z,2.78
2023-03-15T23:20:47.034Z,2.71
2023-03-15T23:23:15.184Z,2.73
2023-03-15T23:25:45.944Z,2.70
2023-03-15T23:28:17.818Z,2.71
2023-03-15T23:30:45.881Z,2.64
2023-03-15T23:33:13.926Z,2.64
2023-03-15T23:35:43.560Z,2.62
2023-03-15T23:38:13.613Z,2.57
2023-03-15T23:40:42.028Z,2.56
2023-03-15T23:43:12.805Z,2.57
2023-03-15T23:45:41.506Z,2.53
2023-03-15T23:48:09.474Z,2.58
2023-03-15T23:50:39.082Z,2.62
2023-03-15T23:53:07.023Z,2.64
2023-03-15T23:55:35.564Z,2.62
2023-03-15T23:58:07.168Z,2.64
